Flight Track Log - Related Links

Times and Time Zones

All times are in EDT time to prevent confusion due to time zone crossing. See the SLI2119 flight status page for this flight to view local times or setup timezone preferences in your user account.

Time Position Orientation Groundspeed Altitude Reporting Facility
EDT Latitude Longitude Course Direction KTS MPH feet Rate Location/Type
Tue 10:21:00 PM 22.4628 -105.1711 137° Southeast  Level Estimated
Tue 10:22:00 PM 22.3984 -105.1082 138° Southeast  Level Estimated
Tue 10:23:00 PM 22.3339 -105.0454 138° Southeast  Level Estimated
Tue 10:24:00 PM 22.2695 -104.9827 138° Southeast  Level Estimated
Tue 10:25:00 PM 22.2050 -104.9200 138° Southeast  Level Estimated
Tue 10:26:00 PM 22.1405 -104.8574 138° Southeast  Level Estimated
Tue 10:27:00 PM 22.0760 -104.7948 138° Southeast  Level Estimated
Tue 10:28:00 PM 22.0114 -104.7323 138° Southeast  Level Estimated
Tue 10:29:00 PM 21.9468 -104.6698 138° Southeast  Level Estimated
Tue 10:30:00 PM 21.8822 -104.6074 138° Southeast  Level Estimated
Tue 10:31:00 PM 21.8176 -104.5451 138° Southeast  Level Estimated
Tue 10:32:00 PM 21.7529 -104.4828 138° Southeast  Level Estimated
Tue 10:33:00 PM 21.6883 -104.4206 138° Southeast  Level Estimated
Tue 10:34:00 PM 21.6236 -104.3584 138° Southeast  Level Estimated
Tue 10:35:00 PM 21.5588 -104.2963 138° Southeast  Level Estimated
Tue 10:36:00 PM 21.4941 -104.2342 138° Southeast  Level Estimated
Tue 10:37:00 PM 21.4293 -104.1722 138° Southeast  Level Estimated
Tue 10:38:00 PM 21.3646 -104.1103 138° Southeast  Level Estimated
Tue 10:39:00 PM 21.2997 -104.0484 138° Southeast  Level Estimated
Tue 10:40:00 PM 21.2349 -103.9865 138° Southeast  Level Estimated
Tue 10:41:00 PM 21.1701 -103.9247 138° Southeast  Level Estimated
Tue 10:42:00 PM 21.1052 -103.8630 138° Southeast  Level Estimated
Tue 10:43:00 PM 21.0403 -103.8013 138° Southeast  Level Estimated
Tue 10:44:00 PM 20.9754 -103.7397 138° Southeast  Level Estimated
Tue 10:45:00 PM 20.9104 -103.6781 138° Southeast  Level Estimated
Tue 10:46:00 PM 20.8454 -103.6166 138° Southeast  Level Estimated
Tue 10:47:00 PM 20.7805 -103.5551 139° Southeast  Level Estimated
Tue 10:48:00 PM 20.7155 -103.4937 139° Southeast  Level Estimated
Tue 10:49:00 PM 20.6504 -103.4323 139° Southeast  Level Estimated
Tue 10:50:00 PM 20.5854 -103.3710 139° Southeast  Level Estimated
Tue 10:51:00 PM 20.5218 -103.3112 139° Southeast  Level Estimated
Tue 10:52:00 PM 20.5218 -103.3112 90° East  Level Estimated
Tue 10:53:00 PM 20.5218 -103.3112 90° East  Level Estimated
Tue 10:54:00 PM 20.5218 -103.3112 90° East  Level Estimated
Tue 10:55:00 PM 20.5218 -103.3112 90° East  Level Estimated
Tue 10:56:00 PM 20.5218 -103.3112 90° East  Level Estimated
Tue 10:57:00 PM 20.5218 -103.3112 90° East  Level Estimated

Login

Don't have an account? Register now (free) for customized features, flight alerts, and more!